createdAt,value
2023-05-04T00:01:08.269Z,6.10
2023-05-04T00:02:03.655Z,6.10
2023-05-04T00:03:08.365Z,6.10
2023-05-04T00:04:06.826Z,6.00
2023-05-04T00:05:05.989Z,6.00
2023-05-04T00:06:03.589Z,6.00
2023-05-04T00:07:06.663Z,6.00
2023-05-04T00:08:04.131Z,6.00
2023-05-04T00:09:06.219Z,6.00
2023-05-04T00:10:06.819Z,6.00
2023-05-04T00:11:09.131Z,6.00
2023-05-04T00:12:06.196Z,6.00
2023-05-04T00:13:03.753Z,5.90
2023-05-04T00:14:03.498Z,6.00
2023-05-04T00:15:06.682Z,5.90
2023-05-04T00:16:04.118Z,5.90
2023-05-04T00:17:06.265Z,5.90
2023-05-04T00:18:03.978Z,5.90
2023-05-04T00:19:03.551Z,5.90
2023-05-04T00:20:09.209Z,5.80
2023-05-04T00:21:03.678Z,5.80
2023-05-04T00:22:03.316Z,5.80
2023-05-04T00:23:08.946Z,5.80
2023-05-04T00:24:03.384Z,5.70
2023-05-04T00:25:04.056Z,5.80
2023-05-04T00:27:03.237Z,5.70
2023-05-04T00:28:06.424Z,5.70
2023-05-04T00:29:03.302Z,5.60
2023-05-04T00:30:04.068Z,5.60
2023-05-04T00:31:11.659Z,5.70
2023-05-04T00:32:05.786Z,5.70
2023-05-04T00:33:03.441Z,5.60
2023-05-04T00:34:06.597Z,5.60
2023-05-04T00:35:09.059Z,5.60
2023-05-04T00:36:05.996Z,5.60
2023-05-04T00:37:03.434Z,5.60
2023-05-04T00:38:04.059Z,5.60
2023-05-04T00:39:06.125Z,5.60
2023-05-04T00:40:03.711Z,5.50
2023-05-04T00:41:06.134Z,5.50
2023-05-04T00:42:03.506Z,5.50
2023-05-04T00:43:04.054Z,5.50
2023-05-04T00:44:06.232Z,5.50
2023-05-04T00:45:03.779Z,5.50
2023-05-04T00:46:05.836Z,5.50
2023-05-04T00:47:05.849Z,5.50
2023-05-04T00:48:03.430Z,5.40
2023-05-04T00:49:04.003Z,5.50
2023-05-04T00:50:03.728Z,5.40
2023-05-04T00:51:03.696Z,5.50
2023-05-04T00:52:03.416Z,5.50
2023-05-04T00:53:06.526Z,5.50
2023-05-04T00:54:06.530Z,5.40
2023-05-04T00:55:04.002Z,5.40
2023-05-04T00:56:03.524Z,5.40
2023-05-04T00:57:06.709Z,5.30
2023-05-04T00:58:04.131Z,5.30
2023-05-04T00:59:03.660Z,5.30
2023-05-04T01:00:03.301Z,5.20
2023-05-04T01:01:05.807Z,5.20
2023-05-04T01:02:03.365Z,5.20
2023-05-04T01:03:04.066Z,5.20
2023-05-04T01:05:04.110Z,5.20
2023-05-04T01:06:06.349Z,5.20
2023-05-04T01:07:08.869Z,5.20
2023-05-04T01:08:03.298Z,5.20
2023-05-04T01:09:06.335Z,5.20
2023-05-04T01:10:03.963Z,5.20
2023-05-04T01:11:03.966Z,5.20
2023-05-04T01:12:03.499Z,5.20
2023-05-04T01:13:06.654Z,5.10
2023-05-04T01:15:03.707Z,5.10
2023-05-04T01:16:03.253Z,5.10
2023-05-04T01:17:06.425Z,5.10
2023-05-04T01:18:04.107Z,5.10
2023-05-04T01:19:03.719Z,5.10
2023-05-04T01:20:08.453Z,5.10
2023-05-04T01:21:03.872Z,5.00
2023-05-04T01:22:03.433Z,5.10
2023-05-04T01:23:04.108Z,5.10
2023-05-04T01:24:03.708Z,5.10
2023-05-04T01:25:05.876Z,5.10
2023-05-04T01:26:05.869Z,5.10
2023-05-04T01:27:05.864Z,5.00
2023-05-04T01:28:03.310Z,5.00
2023-05-04T01:29:03.929Z,5.00
2023-05-04T01:30:03.795Z,5.00
2023-05-04T01:31:03.724Z,5.00
2023-05-04T01:32:05.996Z,5.00
2023-05-04T01:33:03.435Z,4.90
2023-05-04T01:34:04.021Z,4.90
2023-05-04T01:35:06.113Z,4.90
2023-05-04T01:36:03.555Z,4.90
2023-05-04T01:37:03.812Z,5.00
2023-05-04T01:38:03.361Z,4.90
2023-05-04T01:39:03.907Z,4.90
2023-05-04T01:40:03.636Z,4.90
2023-05-04T01:41:03.633Z,4.90
2023-05-04T01:42:05.711Z,4.90
2023-05-04T01:43:09.160Z,4.90
2023-05-04T01:45:06.814Z,4.90
2023-05-04T01:47:03.887Z,4.90
2023-05-04T01:48:03.492Z,4.90
2023-05-04T01:49:03.166Z,4.80
2023-05-04T01:50:03.926Z,4.90
2023-05-04T01:51:03.942Z,4.90
2023-05-04T01:52:03.500Z,4.80
2023-05-04T01:53:06.641Z,4.80
2023-05-04T01:54:04.023Z,4.80
2023-05-04T01:55:03.863Z,4.80
2023-05-04T01:56:03.414Z,4.80
2023-05-04T01:57:04.027Z,4.80
2023-05-04T01:59:06.357Z,4.70
2023-05-04T02:00:03.976Z,4.70
2023-05-04T02:01:06.344Z,4.70
2023-05-04T02:02:04.000Z,4.70
2023-05-04T02:03:06.286Z,4.70
2023-05-04T02:04:08.993Z,4.70
2023-05-04T02:06:03.282Z,4.70
2023-05-04T02:07:03.809Z,4.70
2023-05-04T02:08:03.414Z,4.60
2023-05-04T02:09:04.032Z,4.60
2023-05-04T02:11:06.186Z,4.50
2023-05-04T02:12:08.662Z,4.50
2023-05-04T02:13:06.726Z,4.50
2023-05-04T02:15:06.296Z,4.50
2023-05-04T02:16:03.746Z,4.50
2023-05-04T02:17:06.080Z,4.50
2023-05-04T02:18:03.543Z,4.40
2023-05-04T02:19:03.219Z,4.50
2023-05-04T02:20:03.958Z,4.50
2023-05-04T02:21:03.378Z,4.40
2023-05-04T02:22:03.947Z,4.50
2023-05-04T02:24:09.181Z,4.40
2023-05-04T02:25:06.239Z,4.40
2023-05-04T02:26:03.631Z,4.40
2023-05-04T02:27:05.657Z,4.40
2023-05-04T02:28:06.639Z,4.30
2023-05-04T02:29:04.121Z,4.30
2023-05-04T02:30:03.765Z,4.40
2023-05-04T02:31:06.249Z,4.40
2023-05-04T02:32:06.356Z,4.40
2023-05-04T02:33:03.977Z,4.40
2023-05-04T02:34:03.644Z,4.30
2023-05-04T02:35:08.310Z,4.40
2023-05-04T02:36:03.803Z,4.30
2023-05-04T02:37:04.720Z,4.40
2023-05-04T02:38:06.371Z,4.30
2023-05-04T02:39:03.828Z,4.30
2023-05-04T02:40:03.659Z,4.30
2023-05-04T02:41:06.426Z,4.20
2023-05-04T02:42:03.861Z,4.20
2023-05-04T02:43:08.563Z,4.20
2023-05-04T02:44:04.048Z,4.20
2023-05-04T02:45:06.232Z,4.20
2023-05-04T02:46:06.200Z,4.20
2023-05-04T02:47:03.713Z,4.20
2023-05-04T02:48:03.430Z,4.20
2023-05-04T02:50:03.961Z,4.20
2023-05-04T02:52:03.730Z,4.20
2023-05-04T02:53:06.460Z,4.20
2023-05-04T02:54:09.052Z,4.20
2023-05-04T02:55:03.538Z,4.20
2023-05-04T02:56:06.633Z,4.20
2023-05-04T02:57:04.131Z,4.20
2023-05-04T02:58:03.732Z,4.20
2023-05-04T02:59:03.312Z,4.20
2023-05-04T03:00:04.045Z,4.20
2023-05-04T03:01:05.817Z,4.20
2023-05-04T03:02:03.302Z,4.20
2023-05-04T03:03:04.024Z,4.20
2023-05-04T03:04:03.757Z,4.20
2023-05-04T03:05:06.068Z,4.10
2023-05-04T03:06:06.100Z,4.10
2023-05-04T03:07:06.044Z,4.10
2023-05-04T03:08:03.604Z,4.10
2023-05-04T03:09:05.767Z,4.10
2023-05-04T03:10:05.853Z,4.10
2023-05-04T03:11:03.785Z,4.10
2023-05-04T03:12:03.392Z,4.20
2023-05-04T03:13:04.061Z,4.10
2023-05-04T03:14:06.286Z,4.10
2023-05-04T03:15:06.163Z,4.00
2023-05-04T03:16:03.522Z,4.00
2023-05-04T03:17:03.658Z,4.00
2023-05-04T03:19:09.466Z,4.00
2023-05-04T03:20:04.211Z,4.00
2023-05-04T03:21:06.590Z,4.00
2023-05-04T03:22:04.049Z,4.00
2023-05-04T03:23:05.895Z,4.00
2023-05-04T03:24:05.849Z,3.90
2023-05-04T03:25:05.854Z,4.00
2023-05-04T03:26:03.306Z,4.00
2023-05-04T03:27:06.734Z,4.00
2023-05-04T03:29:03.784Z,4.00
2023-05-04T03:30:06.053Z,4.00
2023-05-04T03:31:08.297Z,4.00
2023-05-04T03:32:03.762Z,4.00
2023-05-04T03:33:05.918Z,3.90
2023-05-04T03:34:05.943Z,4.00
2023-05-04T03:35:08.477Z,3.90
2023-05-04T03:36:04.111Z,3.90
2023-05-04T03:37:06.221Z,4.00
2023-05-04T03:38:03.734Z,3.90
2023-05-04T03:39:03.318Z,3.90
2023-05-04T03:40:04.104Z,3.90
2023-05-04T03:41:03.424Z,3.90
2023-05-04T03:42:03.365Z,3.90
2023-05-04T03:43:06.590Z,3.80
2023-05-04T03:44:06.571Z,3.80
2023-05-04T03:45:04.481Z,3.80
2023-05-04T03:46:06.731Z,3.80
2023-05-04T03:48:06.539Z,3.90
2023-05-04T03:49:04.116Z,3.80
2023-05-04T03:50:03.822Z,3.80
2023-05-04T03:51:06.407Z,3.90
2023-05-04T03:52:06.445Z,3.90
2023-05-04T03:53:14.103Z,3.90
2023-05-04T03:54:06.104Z,3.90
2023-05-04T03:55:03.627Z,3.90
2023-05-04T03:56:05.781Z,3.80
2023-05-04T03:57:05.774Z,3.90
2023-05-04T03:58:03.207Z,3.90
2023-05-04T03:59:03.856Z,3.80
2023-05-04T04:00:03.685Z,3.90
2023-05-04T04:01:08.936Z,3.90
2023-05-04T04:03:03.297Z,3.90
2023-05-04T04:04:04.138Z,3.90
2023-05-04T04:06:08.564Z,4.00
2023-05-04T04:07:04.027Z,4.00
2023-05-04T04:08:03.584Z,4.00
2023-05-04T04:09:05.693Z,4.10
2023-05-04T04:10:04.297Z,4.10
2023-05-04T04:11:03.718Z,4.10
2023-05-04T04:12:03.288Z,4.10
2023-05-04T04:13:03.942Z,4.10
2023-05-04T04:14:03.728Z,4.10
2023-05-04T04:15:05.977Z,4.10
2023-05-04T04:16:03.458Z,4.10
2023-05-04T04:17:04.193Z,4.20
2023-05-04T04:19:03.613Z,4.20
2023-05-04T04:20:03.428Z,4.20
2023-05-04T04:21:08.573Z,4.20
2023-05-04T04:22:09.054Z,4.30
2023-05-04T04:23:06.090Z,4.30
2023-05-04T04:24:03.297Z,4.30
2023-05-04T04:25:06.815Z,4.30
2023-05-04T04:27:04.103Z,4.40
2023-05-04T04:28:06.332Z,4.60
2023-05-04T04:29:03.751Z,4.60
2023-05-04T04:30:03.383Z,4.70
2023-05-04T04:31:03.734Z,4.80
2023-05-04T04:32:03.466Z,4.90
2023-05-04T04:33:06.037Z,5.20
2023-05-04T04:34:06.148Z,5.40
2023-05-04T04:35:03.642Z,5.40
2023-05-04T04:36:03.184Z,5.60
2023-05-04T04:37:06.267Z,5.90
2023-05-04T04:38:03.984Z,5.90
2023-05-04T04:39:06.090Z,6.30
2023-05-04T04:40:08.620Z,6.50
2023-05-04T04:41:04.125Z,6.50
2023-05-04T04:42:06.169Z,6.80
2023-05-04T04:43:03.651Z,6.80
2023-05-04T04:44:03.220Z,6.90
2023-05-04T04:45:03.822Z,7.00
2023-05-04T04:46:03.468Z,7.10
2023-05-04T04:47:04.085Z,7.20
2023-05-04T04:48:06.261Z,7.50
2023-05-04T04:49:06.451Z,7.60
2023-05-04T04:50:04.251Z,7.60
2023-05-04T04:51:04.110Z,7.80
2023-05-04T04:52:06.386Z,8.10
2023-05-04T04:53:06.428Z,8.20
2023-05-04T04:54:09.009Z,8.40
2023-05-04T04:56:06.698Z,8.60
2023-05-04T04:57:04.146Z,8.60
2023-05-04T04:58:03.755Z,8.70
2023-05-04T04:59:03.290Z,8.80
2023-05-04T05:00:06.586Z,9.00
2023-05-04T05:01:06.120Z,9.10
2023-05-04T05:02:03.725Z,9.10
2023-05-04T05:03:03.321Z,9.20
2023-05-04T05:04:06.474Z,9.30
2023-05-04T05:05:14.111Z,9.40
2023-05-04T05:06:03.556Z,9.40
2023-05-04T05:07:04.081Z,9.40
2023-05-04T05:08:03.636Z,9.50
2023-05-04T05:09:03.294Z,9.50
2023-05-04T05:10:04.044Z,9.50
2023-05-04T05:11:03.401Z,9.70
2023-05-04T05:12:06.528Z,10.00
2023-05-04T05:13:06.704Z,10.20
2023-05-04T05:14:05.787Z,10.40
2023-05-04T05:15:03.180Z,10.40
2023-05-04T05:16:06.298Z,10.70
2023-05-04T05:17:06.576Z,10.90
2023-05-04T05:19:06.375Z,11.20
2023-05-04T05:20:06.484Z,11.40
2023-05-04T05:21:05.798Z,11.50
2023-05-04T05:22:03.330Z,11.50
2023-05-04T05:23:06.465Z,11.80
2023-05-04T05:24:06.370Z,11.90
2023-05-04T05:25:06.483Z,12.00
2023-05-04T05:26:06.560Z,12.10
2023-05-04T05:27:04.090Z,12.10
2023-05-04T05:28:03.570Z,12.20
2023-05-04T05:29:06.621Z,12.50
2023-05-04T05:30:04.298Z,12.50
2023-05-04T05:32:06.953Z,12.80
2023-05-04T05:33:03.587Z,12.80
2023-05-04T05:34:03.196Z,12.80
2023-05-04T05:35:06.299Z,13.00
2023-05-04T05:36:03.908Z,13.00
2023-05-04T05:37:06.077Z,13.10
2023-05-04T05:38:06.122Z,13.20
2023-05-04T05:39:06.228Z,13.20
2023-05-04T05:40:08.800Z,13.20
2023-05-04T05:41:08.317Z,13.20
2023-05-04T05:42:06.153Z,13.20
2023-05-04T05:43:03.698Z,13.20
2023-05-04T05:44:03.273Z,13.20
2023-05-04T05:45:06.303Z,13.30
2023-05-04T05:46:08.868Z,13.20
2023-05-04T05:47:03.448Z,13.20
2023-05-04T05:48:06.509Z,13.20
2023-05-04T05:49:04.033Z,13.20
2023-05-04T05:50:03.816Z,13.10
2023-05-04T05:51:04.061Z,13.10
2023-05-04T05:53:05.809Z,13.10
2023-05-04T05:54:03.284Z,13.10
2023-05-04T05:55:03.812Z,13.00
2023-05-04T05:56:06.008Z,13.10
2023-05-04T05:57:06.009Z,13.30
2023-05-04T05:58:03.592Z,13.20
2023-05-04T05:59:03.735Z,13.30
2023-05-04T06:00:03.543Z,13.30
2023-05-04T06:01:03.621Z,13.40
2023-05-04T06:02:08.695Z,13.40
2023-05-04T06:03:03.316Z,13.40
2023-05-04T06:04:04.231Z,13.60
2023-05-04T06:06:06.473Z,13.80
2023-05-04T06:07:06.547Z,13.90
2023-05-04T06:08:04.078Z,13.90
2023-05-04T06:09:03.780Z,13.90
2023-05-04T06:10:03.514Z,14.00
2023-05-04T06:11:03.550Z,14.00
2023-05-04T06:12:04.175Z,14.10
2023-05-04T06:13:06.293Z,14.20
2023-05-04T06:14:03.898Z,14.20
2023-05-04T06:15:03.559Z,14.30
2023-05-04T06:16:03.560Z,14.30
2023-05-04T06:18:06.346Z,14.60
2023-05-04T06:19:06.508Z,14.70
2023-05-04T06:20:06.326Z,14.70
2023-05-04T06:21:06.584Z,14.80
2023-05-04T06:22:06.597Z,14.80
2023-05-04T06:23:06.682Z,14.80
2023-05-04T06:24:04.087Z,14.80
2023-05-04T06:25:06.017Z,14.80
2023-05-04T06:26:03.797Z,14.90
2023-05-04T06:27:03.397Z,14.90
2023-05-04T06:28:04.004Z,15.00
2023-05-04T06:29:03.684Z,15.00
2023-05-04T06:30:05.972Z,15.20
2023-05-04T06:31:06.366Z,15.30
2023-05-04T06:32:06.350Z,15.30
2023-05-04T06:33:06.631Z,15.30
2023-05-04T06:35:03.923Z,15.30
2023-05-04T06:36:11.443Z,15.40
2023-05-04T06:37:04.000Z,15.40
2023-05-04T06:38:03.616Z,15.40
2023-05-04T06:39:05.827Z,15.50
2023-05-04T06:40:03.368Z,15.50
2023-05-04T06:41:03.905Z,15.50
2023-05-04T06:42:03.455Z,15.40
2023-05-04T06:43:09.057Z,15.40
2023-05-04T06:44:03.644Z,15.40
2023-05-04T06:45:03.343Z,15.30
2023-05-04T06:46:04.065Z,15.30
2023-05-04T06:47:06.259Z,15.30
2023-05-04T06:48:08.912Z,15.40
2023-05-04T06:50:04.120Z,15.40
2023-05-04T06:52:03.858Z,15.50
2023-05-04T06:53:06.036Z,15.60
2023-05-04T06:54:03.430Z,15.60
2023-05-04T06:55:11.650Z,15.60
2023-05-04T06:56:06.644Z,15.70
2023-05-04T06:57:04.135Z,15.70
2023-05-04T06:58:06.264Z,15.70
2023-05-04T06:59:03.651Z,15.70
2023-05-04T07:00:06.006Z,15.80
2023-05-04T07:01:03.904Z,15.80
2023-05-04T07:02:08.691Z,15.80
2023-05-04T07:03:04.164Z,15.80
2023-05-04T07:04:03.785Z,15.80
2023-05-04T07:06:06.721Z,16.00
2023-05-04T07:08:03.815Z,16.00
2023-05-04T07:09:06.038Z,16.10
2023-05-04T07:10:03.743Z,16.10
2023-05-04T07:11:03.616Z,16.10
2023-05-04T07:12:03.281Z,16.20
2023-05-04T07:13:03.842Z,16.20
2023-05-04T07:14:03.470Z,16.20
2023-05-04T07:15:04.073Z,16.20
2023-05-04T07:16:06.302Z,16.20
2023-05-04T07:17:03.826Z,16.20
2023-05-04T07:18:03.532Z,16.30
2023-05-04T07:19:03.284Z,16.30
2023-05-04T07:20:06.355Z,16.40
2023-05-04T07:21:16.599Z,16.40
2023-05-04T07:22:04.096Z,16.40
2023-05-04T07:23:03.653Z,16.40
2023-05-04T07:24:05.758Z,16.60
2023-05-04T07:25:05.799Z,16.60
2023-05-04T07:26:05.782Z,16.70
2023-05-04T07:27:05.825Z,16.60
2023-05-04T07:28:03.400Z,16.70
2023-05-04T07:29:04.037Z,16.70
2023-05-04T07:31:06.100Z,16.90
2023-05-04T07:32:06.125Z,17.00
2023-05-04T07:33:03.688Z,16.90
2023-05-04T07:34:10.973Z,17.10
2023-05-04T07:35:06.038Z,17.20
2023-05-04T07:36:03.497Z,17.20
2023-05-04T07:37:04.216Z,17.20
2023-05-04T07:38:11.375Z,17.30
2023-05-04T07:39:03.882Z,17.30
2023-05-04T07:40:06.413Z,17.40
2023-05-04T07:41:03.633Z,17.30
2023-05-04T07:42:05.711Z,17.40
2023-05-04T07:43:03.206Z,17.40
2023-05-04T07:44:03.788Z,17.50
2023-05-04T07:45:03.428Z,17.50
2023-05-04T07:46:09.182Z,17.60
2023-05-04T07:47:06.387Z,17.60
2023-05-04T07:48:06.527Z,17.70
2023-05-04T07:49:06.652Z,17.60
2023-05-04T07:50:04.584Z,17.60
2023-05-04T07:51:05.924Z,17.70
2023-05-04T07:52:05.992Z,17.80
2023-05-04T07:53:03.477Z,17.70
2023-05-04T07:54:06.646Z,17.80
2023-05-04T07:55:04.216Z,17.80
2023-05-04T07:56:03.797Z,17.80
2023-05-04T07:57:10.993Z,17.80
2023-05-04T07:58:16.070Z,17.90
2023-05-04T07:59:03.653Z,17.90
2023-05-04T08:00:03.530Z,18.00
2023-05-04T08:01:03.536Z,18.00
2023-05-04T08:02:03.205Z,18.10
2023-05-04T08:03:06.580Z,18.20
2023-05-04T08:05:06.276Z,18.20
2023-05-04T08:06:03.711Z,18.20
2023-05-04T08:07:05.942Z,18.20
2023-05-04T08:08:05.990Z,18.30
2023-05-04T08:09:18.666Z,18.30
2023-05-04T08:10:03.449Z,18.30
2023-05-04T08:11:16.253Z,18.30
2023-05-04T08:12:06.018Z,18.30
2023-05-04T08:13:06.120Z,18.30
2023-05-04T08:14:08.770Z,18.40
2023-05-04T08:15:03.560Z,18.40
2023-05-04T08:16:05.913Z,18.30
2023-05-04T08:17:08.596Z,18.40
2023-05-04T08:18:04.174Z,18.40
2023-05-04T08:19:06.310Z,18.40
2023-05-04T08:20:06.359Z,18.40
2023-05-04T08:21:03.832Z,18.40
2023-05-04T08:22:03.424Z,18.50
2023-05-04T08:23:04.086Z,18.50
2023-05-04T08:25:03.746Z,18.60
2023-05-04T08:26:06.246Z,18.70
2023-05-04T08:27:07.594Z,18.70
2023-05-04T08:28:06.042Z,18.80
2023-05-04T08:29:03.606Z,18.80
2023-05-04T08:30:10.772Z,18.80
2023-05-04T08:31:05.812Z,18.80
2023-05-04T08:32:08.322Z,18.90
2023-05-04T08:33:06.485Z,18.90
2023-05-04T08:34:04.091Z,18.80
2023-05-04T08:35:03.868Z,18.90
2023-05-04T08:36:04.031Z,18.90
2023-05-04T08:37:06.528Z,18.90
2023-05-04T08:38:04.206Z,18.90
2023-05-04T08:39:03.859Z,18.90
2023-05-04T08:40:06.083Z,18.90
2023-05-04T08:41:03.481Z,18.90
2023-05-04T08:42:04.162Z,18.90
2023-05-04T08:43:03.852Z,18.50
2023-05-04T08:44:03.513Z,18.90
2023-05-04T08:45:03.404Z,18.90
2023-05-04T08:46:03.406Z,18.90
2023-05-04T08:47:04.129Z,18.90
2023-05-04T08:48:08.923Z,18.90
2023-05-04T08:49:03.683Z,18.90
2023-05-04T08:50:05.973Z,18.90
2023-05-04T08:51:05.885Z,18.90
2023-05-04T08:52:03.410Z,18.90
2023-05-04T08:53:04.038Z,18.80
2023-05-04T08:54:03.815Z,18.80
2023-05-04T08:55:03.538Z,18.80
2023-05-04T08:56:06.151Z,18.80
2023-05-04T08:57:03.628Z,18.80
2023-05-04T08:58:05.823Z,18.80
2023-05-04T08:59:03.372Z,18.80
2023-05-04T09:00:06.679Z,18.80
2023-05-04T09:01:05.774Z,18.80
2023-05-04T09:02:06.129Z,18.80
2023-05-04T09:03:03.857Z,18.80
2023-05-04T09:04:06.153Z,18.80
2023-05-04T09:05:04.000Z,18.80
2023-05-04T09:06:03.777Z,18.80
2023-05-04T09:07:05.916Z,18.90
2023-05-04T09:08:03.434Z,18.90
2023-05-04T09:09:06.511Z,19.00
2023-05-04T09:10:04.018Z,18.90
2023-05-04T09:11:03.568Z,19.00
2023-05-04T09:12:03.191Z,19.10
2023-05-04T09:13:03.884Z,19.10
2023-05-04T09:14:06.145Z,19.20
2023-05-04T09:15:03.740Z,19.20
2023-05-04T09:16:05.975Z,19.30
2023-05-04T09:17:03.725Z,19.20
2023-05-04T09:18:03.371Z,19.20
2023-05-04T09:19:04.126Z,19.20
2023-05-04T09:20:03.859Z,19.30
2023-05-04T09:21:03.428Z,19.20
2023-05-04T09:22:04.102Z,19.10
2023-05-04T09:24:08.539Z,19.20
2023-05-04T09:25:04.071Z,19.20
2023-05-04T09:26:03.857Z,19.20
2023-05-04T09:27:06.036Z,19.20
2023-05-04T09:28:08.599Z,19.10
2023-05-04T09:29:04.104Z,19.10
2023-05-04T09:30:03.644Z,19.20
2023-05-04T09:31:03.265Z,19.10
2023-05-04T09:32:03.928Z,19.20
2023-05-04T09:34:03.191Z,19.10
2023-05-04T09:35:04.096Z,19.20
2023-05-04T09:37:03.653Z,19.10
2023-05-04T09:38:03.311Z,19.20
2023-05-04T09:39:04.118Z,19.20
2023-05-04T09:41:03.320Z,19.30
2023-05-04T09:42:03.857Z,19.30
2023-05-04T09:43:03.604Z,19.30
2023-05-04T09:44:03.259Z,19.30
2023-05-04T09:45:04.225Z,19.30
2023-05-04T09:47:03.395Z,19.30
2023-05-04T09:48:06.567Z,19.30
2023-05-04T09:49:04.077Z,19.30
2023-05-04T09:50:03.674Z,19.30
2023-05-04T09:51:08.662Z,19.30
2023-05-04T09:52:03.181Z,19.30
2023-05-04T09:53:03.782Z,19.40
2023-05-04T09:54:03.418Z,19.40
2023-05-04T09:55:04.288Z,19.50
2023-05-04T09:57:03.217Z,19.50
2023-05-04T09:58:03.926Z,19.50
2023-05-04T10:00:14.541Z,19.40
2023-05-04T10:02:14.328Z,19.40
2023-05-04T10:03:06.261Z,19.30
2023-05-04T10:04:06.267Z,19.40
2023-05-04T10:05:03.913Z,19.40
2023-05-04T10:06:03.829Z,19.40
2023-05-04T10:08:04.134Z,19.40
2023-05-04T10:10:03.420Z,19.40
2023-05-04T10:11:03.977Z,19.40
2023-05-04T10:12:06.300Z,19.40
2023-05-04T10:13:03.820Z,19.40
2023-05-04T10:14:03.464Z,19.40
2023-05-04T10:15:04.212Z,19.40
2023-05-04T10:16:06.651Z,19.40
2023-05-04T10:17:12.499Z,19.50
2023-05-04T10:18:03.294Z,19.50
2023-05-04T10:19:06.602Z,19.50
2023-05-04T10:20:04.106Z,19.50
2023-05-04T10:21:03.794Z,19.50
2023-05-04T10:22:16.046Z,19.60
2023-05-04T10:23:03.531Z,19.60
2023-05-04T10:24:04.075Z,19.60
2023-05-04T10:25:06.479Z,19.70
2023-05-04T10:26:03.349Z,19.60
2023-05-04T10:27:06.454Z,19.60
2023-05-04T10:28:03.904Z,19.60
2023-05-04T10:30:04.031Z,19.70
2023-05-04T10:31:03.596Z,19.70
2023-05-04T10:32:03.329Z,19.70
2023-05-04T10:33:06.737Z,19.70
2023-05-04T10:35:04.279Z,19.70
2023-05-04T10:37:03.966Z,19.70
2023-05-04T10:39:03.350Z,19.70
2023-05-04T10:40:11.605Z,19.70
2023-05-04T10:41:04.152Z,19.70
2023-05-04T10:42:03.754Z,19.70
2023-05-04T10:43:03.294Z,19.70
2023-05-04T10:44:03.994Z,19.70
2023-05-04T10:46:03.489Z,19.70
2023-05-04T10:47:06.713Z,19.80
2023-05-04T10:48:05.749Z,19.90
2023-05-04T10:49:05.855Z,20.00
2023-05-04T10:50:03.434Z,19.90
2023-05-04T10:51:04.050Z,20.00
2023-05-04T10:52:03.858Z,20.00
2023-05-04T10:53:03.350Z,20.00
2023-05-04T10:54:03.908Z,20.10
2023-05-04T10:55:03.742Z,20.10
2023-05-04T10:56:11.245Z,20.10
2023-05-04T10:57:06.264Z,20.20
2023-05-04T10:58:03.789Z,20.20
2023-05-04T10:59:05.877Z,20.20
2023-05-04T11:00:03.356Z,20.30
2023-05-04T11:01:06.555Z,20.30
2023-05-04T11:02:06.765Z,20.30
2023-05-04T11:03:06.008Z,20.30
2023-05-04T11:04:06.224Z,20.20
2023-05-04T11:05:03.867Z,20.20
2023-05-04T11:06:03.221Z,20.20
2023-05-04T11:07:06.471Z,20.10
2023-05-04T11:08:04.090Z,20.10
2023-05-04T11:09:03.742Z,20.20
2023-05-04T11:10:05.916Z,20.20
2023-05-04T11:11:03.390Z,20.10
2023-05-04T11:12:04.006Z,20.10
2023-05-04T11:13:05.867Z,20.10
2023-05-04T11:15:04.246Z,20.10
2023-05-04T11:16:05.943Z,20.00
2023-05-04T11:17:03.953Z,20.00
2023-05-04T11:18:08.420Z,20.00
2023-05-04T11:19:04.178Z,20.00
2023-05-04T11:20:03.797Z,20.00
2023-05-04T11:21:10.930Z,20.00
2023-05-04T11:22:03.569Z,20.00
2023-05-04T11:23:05.733Z,19.90
2023-05-04T11:24:05.814Z,19.90
2023-05-04T11:25:03.669Z,19.90
2023-05-04T11:26:05.899Z,19.90
2023-05-04T11:27:08.507Z,19.90
2023-05-04T11:28:06.537Z,19.90
2023-05-04T11:29:06.436Z,19.90
2023-05-04T11:30:03.859Z,19.70
2023-05-04T11:31:03.404Z,19.90
2023-05-04T11:32:06.055Z,19.90
2023-05-04T11:33:03.589Z,19.90
2023-05-04T11:34:03.234Z,19.90
2023-05-04T11:35:03.966Z,19.90
2023-05-04T11:36:06.552Z,20.00
2023-05-04T11:37:09.021Z,20.00
2023-05-04T11:39:03.970Z,20.00
2023-05-04T11:40:03.593Z,19.90
2023-05-04T11:41:04.215Z,19.90
2023-05-04T11:42:06.414Z,20.00
2023-05-04T11:43:03.953Z,20.00
2023-05-04T11:44:03.500Z,20.00
2023-05-04T11:45:04.374Z,20.00
2023-05-04T11:47:07.604Z,20.00
2023-05-04T11:48:06.793Z,20.00
2023-05-04T11:49:05.833Z,19.90
2023-05-04T11:50:03.351Z,19.90
2023-05-04T11:51:03.999Z,20.00
2023-05-04T11:52:06.164Z,20.00
2023-05-04T11:53:03.714Z,20.00
2023-05-04T11:54:03.404Z,20.00
2023-05-04T11:55:06.757Z,20.00
2023-05-04T11:57:03.505Z,20.10
2023-05-04T11:58:04.276Z,20.10
2023-05-04T12:00:03.443Z,20.10
2023-05-04T12:01:04.049Z,20.20
2023-05-04T12:02:04.199Z,20.20
2023-05-04T12:03:06.623Z,20.30
2023-05-04T12:05:04.067Z,20.40
2023-05-04T12:06:03.890Z,20.40
2023-05-04T12:07:08.571Z,20.40
2023-05-04T12:08:04.091Z,20.40
2023-05-04T12:09:03.789Z,20.40
2023-05-04T12:10:06.023Z,20.40
2023-05-04T12:11:06.215Z,20.40
2023-05-04T12:12:06.298Z,20.40
2023-05-04T12:13:06.343Z,20.40
2023-05-04T12:14:06.536Z,20.40
2023-05-04T12:15:06.870Z,20.40
2023-05-04T12:16:06.199Z,20.40
2023-05-04T12:17:03.725Z,20.40
2023-05-04T12:18:03.560Z,20.40
2023-05-04T12:19:06.035Z,20.50
2023-05-04T12:20:06.196Z,20.50
2023-05-04T12:21:04.993Z,20.50
2023-05-04T12:22:03.844Z,20.60
2023-05-04T12:23:03.518Z,20.60
2023-05-04T12:24:06.731Z,20.60
2023-05-04T12:25:06.452Z,20.60
2023-05-04T12:26:03.463Z,20.60
2023-05-04T12:27:06.609Z,20.60
2023-05-04T12:28:04.174Z,20.60
2023-05-04T12:29:03.878Z,20.60
2023-05-04T12:30:03.539Z,20.60
2023-05-04T12:31:03.265Z,20.60
2023-05-04T12:32:03.896Z,20.60
2023-05-04T12:33:06.190Z,20.60
2023-05-04T12:34:03.713Z,20.60
2023-05-04T12:35:03.346Z,20.60
2023-05-04T12:36:03.959Z,20.60
2023-05-04T12:37:03.613Z,20.60
2023-05-04T12:38:05.922Z,20.60
2023-05-04T12:39:03.499Z,20.50
2023-05-04T12:40:04.387Z,20.60
2023-05-04T12:42:06.395Z,20.60
2023-05-04T12:43:03.353Z,20.60
2023-05-04T12:44:06.301Z,20.60
2023-05-04T12:45:06.455Z,20.60
2023-05-04T12:46:03.327Z,20.60
2023-05-04T12:47:03.946Z,20.60
2023-05-04T12:48:03.917Z,20.60
2023-05-04T12:49:06.247Z,20.70
2023-05-04T12:50:03.735Z,20.70
2023-05-04T12:51:05.835Z,20.70
2023-05-04T12:52:05.799Z,20.70
2023-05-04T12:53:03.359Z,20.70
2023-05-04T12:54:04.038Z,20.70
2023-05-04T12:55:06.480Z,20.80
2023-05-04T12:56:03.733Z,20.80
2023-05-04T12:57:03.330Z,20.80
2023-05-04T12:58:03.945Z,20.80
2023-05-04T13:00:05.718Z,20.70
2023-05-04T13:01:05.788Z,20.70
2023-05-04T13:02:05.931Z,20.70
2023-05-04T13:03:03.426Z,20.70
2023-05-04T13:04:06.610Z,20.70
2023-05-04T13:05:04.291Z,20.60
2023-05-04T13:06:06.531Z,20.70
2023-05-04T13:07:04.179Z,20.70
2023-05-04T13:08:03.747Z,20.70
2023-05-04T13:09:03.360Z,20.70
2023-05-04T13:10:06.570Z,20.70
2023-05-04T13:11:06.661Z,20.80
2023-05-04T13:12:04.151Z,20.70
2023-05-04T13:13:03.744Z,20.80
2023-05-04T13:14:03.337Z,20.80
2023-05-04T13:15:03.951Z,20.80
2023-05-04T13:16:06.551Z,20.90
2023-05-04T13:18:03.880Z,21.00
2023-05-04T13:20:04.329Z,21.00
2023-05-04T13:22:06.621Z,21.10
2023-05-04T13:23:06.710Z,21.10
2023-05-04T13:24:06.735Z,21.10
2023-05-04T13:25:05.993Z,21.10
2023-05-04T13:26:04.035Z,21.10
2023-05-04T13:27:03.567Z,21.20
2023-05-04T13:28:04.159Z,21.20
2023-05-04T13:29:06.314Z,21.20
2023-05-04T13:30:03.972Z,21.20
2023-05-04T13:31:06.203Z,21.20
2023-05-04T13:32:03.869Z,21.20
2023-05-04T13:33:21.370Z,21.20
2023-05-04T13:34:04.033Z,21.20
2023-05-04T13:35:08.755Z,21.10
2023-05-04T13:36:03.501Z,21.10
2023-05-04T13:37:04.187Z,21.20
2023-05-04T13:38:03.694Z,21.10
2023-05-04T13:39:03.262Z,21.10
2023-05-04T13:40:03.910Z,21.10
2023-05-04T13:41:06.093Z,21.10
2023-05-04T13:42:03.604Z,21.10
2023-05-04T13:43:04.206Z,21.10
2023-05-04T13:44:03.886Z,21.10
2023-05-04T13:45:03.680Z,21.10
2023-05-04T13:46:03.339Z,21.10
2023-05-04T13:47:04.101Z,21.10
2023-05-04T13:49:06.220Z,21.10
2023-05-04T13:50:08.869Z,21.10
2023-05-04T13:51:03.495Z,21.10
2023-05-04T13:52:10.875Z,21.20
2023-05-04T13:53:03.357Z,21.20
2023-05-04T13:54:06.489Z,21.20
2023-05-04T13:55:06.610Z,21.20
2023-05-04T13:56:03.447Z,21.20
2023-05-04T13:57:06.589Z,21.20
2023-05-04T13:58:06.716Z,21.20
2023-05-04T14:00:07.422Z,21.20
2023-05-04T14:01:03.820Z,21.20
2023-05-04T14:02:03.556Z,21.20
2023-05-04T14:03:03.428Z,21.10
2023-05-04T14:04:03.242Z,21.10